MAPA DE AEROPUERTO

INFORMACIÓN METAR y TAF

METAR FOR LEMH
ADDS - METARS form results

(1814 UTC 01 June 2020)
Data provider http://aviationweather.gov/metar/data/
 
METAR text: LEMH 011800Z 11007KT CAVOK 22/16 Q1016
Conditions at: LEMH (MAHON/MENORCA IS, ES) observed 1800 UTC 01 June 2020
Temperature: 22.0°C (72°F)
Dewpoint: 16.0°C (61°F) [RH = 69%]
Pressure (altimeter): 30.00 inches Hg (1016.0 mb)
Winds: from the ESE (110 degrees) at 8 MPH (7 knots; 3.6 m/s)
Visibility: 6 or more miles (10+ km)
Ceiling: ceiling and visibility are OK
Clouds: unknown
Weather: no significant weather observed at this time

METAR text: LEMH 011730Z 12008KT 090V150 CAVOK 22/16 Q1016
Conditions at: LEMH (MAHON/MENORCA IS, ES) observed 1730 UTC 01 June 2020
Temperature: 22.0°C (72°F)
Dewpoint: 16.0°C (61°F) [RH = 69%]
Pressure (altimeter): 30.00 inches Hg (1016.0 mb)
Winds: from the ESE (120 degrees) at 9 MPH (8 knots; 4.1 m/s)
Visibility: 6 or more miles (10+ km)
Ceiling: ceiling and visibility are OK
Clouds: unknown
Weather: no significant weather observed at this time

Forecast for: LEMH (MAHON/MENORCA IS, ES)
Text: TAF LEMH 011400Z 0115/0215 11009KT 9999 FEW015 TX26/0212Z TN15/0206Z
Forecast period: 1500 to 2200 UTC 01 June 2020
Forecast type: FROM: standard forecast or significant change
Winds: from the ESE (110 degrees) at 10 MPH (9 knots; 4.6 m/s)
Visibility: 6 or more miles 10+ km)
Ceiling: at least 12,000 feet AGL
Clouds: few clouds at 1500 feet AGL
Weather: no significant weather forecast for this period
Text: PROB30
Forecast period: 2000 UTC 01 June 2020 to 0600 UTC 02 June 2020
Forecast type: TEMPORARY: The following changes expected for less than half the time period
Visibility: 1.86 miles (2.99 km)
Ceiling: unknown
Clouds: missing
Weather: BR  (mist)
Text: TEMPO 0120/0206 3000 BR
Forecast period: 2200 UTC 01 June 2020 to 0700 UTC 02 June 2020
Forecast type: BECOMING: Conditions expected to become as follows by 0000 UTC 02 June 2020
Winds: variable direction winds at 5 MPH (4 knots; 2.1 m/s)
Visibility: 6 or more miles 10+ km)
Ceiling: at least 12,000 feet AGL
Clouds: few clouds at 1500 feet AGL
Weather: no significant weather forecast for this period
Text: BECMG 0122/0124 VRB04KT
Forecast period: 0700 to 1500 UTC 02 June 2020
Forecast type: BECOMING: Conditions expected to become as follows by 0900 UTC 02 June 2020
Winds: from the ESE (120 degrees) at 10 MPH (9 knots; 4.6 m/s)
Visibility: 6 or more miles 10+ km)
Ceiling: at least 12,000 feet AGL
Clouds: few clouds at 1500 feet AGL
Weather: no significant weather forecast for this period